sensor_id;sensor_type;location;lat;lon;timestamp;temperature;humidity
23311;DHT22;11828;51.508;18.118;2023-10-13T00:00:38;31.10;38.30
23311;DHT22;11828;51.508;18.118;2023-10-13T00:03:26;31.20;38.50
23311;DHT22;11828;51.508;18.118;2023-10-13T00:06:00;31.20;38.40
23311;DHT22;11828;51.508;18.118;2023-10-13T00:08:29;31.20;38.40
23311;DHT22;11828;51.508;18.118;2023-10-13T00:10:56;31.30;38.30
23311;DHT22;11828;51.508;18.118;2023-10-13T00:13:29;31.30;38.20
23311;DHT22;11828;51.508;18.118;2023-10-13T00:15:57;31.40;38.20
23311;DHT22;11828;51.508;18.118;2023-10-13T00:18:29;31.40;38.20
23311;DHT22;11828;51.508;18.118;2023-10-13T00:21:00;31.40;38.20
23311;DHT22;11828;51.508;18.118;2023-10-13T00:23:29;31.40;38.20
23311;DHT22;11828;51.508;18.118;2023-10-13T00:25:59;31.40;38.10
23311;DHT22;11828;51.508;18.118;2023-10-13T00:28:26;31.40;38.00
23311;DHT22;11828;51.508;18.118;2023-10-13T00:31:01;31.40;37.80
23311;DHT22;11828;51.508;18.118;2023-10-13T00:33:37;31.40;38.60
23311;DHT22;11828;51.508;18.118;2023-10-13T00:36:05;31.40;38.00
23311;DHT22;11828;51.508;18.118;2023-10-13T00:38:33;31.40;38.10
23311;DHT22;11828;51.508;18.118;2023-10-13T00:41:01;31.50;37.90
23311;DHT22;11828;51.508;18.118;2023-10-13T00:43:47;31.50;37.80
23311;DHT22;11828;51.508;18.118;2023-10-13T00:46:34;31.50;37.80
23311;DHT22;11828;51.508;18.118;2023-10-13T00:49:03;31.50;37.80
23311;DHT22;11828;51.508;18.118;2023-10-13T00:51:34;31.50;37.80
23311;DHT22;11828;51.508;18.118;2023-10-13T00:54:05;31.50;37.70
23311;DHT22;11828;51.508;18.118;2023-10-13T00:56:46;31.50;37.80
23311;DHT22;11828;51.508;18.118;2023-10-13T00:59:23;31.50;37.80
23311;DHT22;11828;51.508;18.118;2023-10-13T01:01:51;31.50;37.80
23311;DHT22;11828;51.508;18.118;2023-10-13T01:04:21;31.50;37.80
23311;DHT22;11828;51.508;18.118;2023-10-13T01:06:54;31.50;37.70
23311;DHT22;11828;51.508;18.118;2023-10-13T01:09:20;31.50;37.70
23311;DHT22;11828;51.508;18.118;2023-10-13T01:11:50;31.50;37.70
23311;DHT22;11828;51.508;18.118;2023-10-13T01:14:21;31.50;38.50
23311;DHT22;11828;51.508;18.118;2023-10-13T01:16:49;31.50;37.80
23311;DHT22;11828;51.508;18.118;2023-10-13T01:19:19;31.50;37.60
23311;DHT22;11828;51.508;18.118;2023-10-13T01:21:51;31.50;37.50
23311;DHT22;11828;51.508;18.118;2023-10-13T01:24:28;31.50;37.60
23311;DHT22;11828;51.508;18.118;2023-10-13T01:26:57;31.50;37.80
23311;DHT22;11828;51.508;18.118;2023-10-13T01:29:33;31.50;37.80
23311;DHT22;11828;51.508;18.118;2023-10-13T01:32:00;31.50;37.60
23311;DHT22;11828;51.508;18.118;2023-10-13T01:34:26;31.50;37.50
23311;DHT22;11828;51.508;18.118;2023-10-13T01:36:53;31.50;37.60
23311;DHT22;11828;51.508;18.118;2023-10-13T01:39:24;31.50;37.60
23311;DHT22;11828;51.508;18.118;2023-10-13T01:41:57;31.50;37.60
23311;DHT22;11828;51.508;18.118;2023-10-13T01:44:24;31.50;37.50
23311;DHT22;11828;51.508;18.118;2023-10-13T01:46:52;31.50;37.40
23311;DHT22;11828;51.508;18.118;2023-10-13T01:49:18;31.50;37.30
23311;DHT22;11828;51.508;18.118;2023-10-13T01:51:45;31.50;37.40
23311;DHT22;11828;51.508;18.118;2023-10-13T01:54:13;31.50;37.30
23311;DHT22;11828;51.508;18.118;2023-10-13T01:56:42;31.50;37.30
23311;DHT22;11828;51.508;18.118;2023-10-13T01:59:12;31.50;37.40
23311;DHT22;11828;51.508;18.118;2023-10-13T02:01:39;31.50;37.40
23311;DHT22;11828;51.508;18.118;2023-10-13T02:04:07;31.50;37.40
23311;DHT22;11828;51.508;18.118;2023-10-13T02:06:35;31.50;37.40
23311;DHT22;11828;51.508;18.118;2023-10-13T02:09:06;31.60;37.30
23311;DHT22;11828;51.508;18.118;2023-10-13T02:11:43;31.60;37.40
23311;DHT22;11828;51.508;18.118;2023-10-13T02:14:13;31.60;37.50
23311;DHT22;11828;51.508;18.118;2023-10-13T02:16:43;31.60;37.40
23311;DHT22;11828;51.508;18.118;2023-10-13T02:19:12;31.60;37.50
23311;DHT22;11828;51.508;18.118;2023-10-13T02:21:41;31.50;37.50
23311;DHT22;11828;51.508;18.118;2023-10-13T02:24:10;31.50;37.60
23311;DHT22;11828;51.508;18.118;2023-10-13T02:26:45;31.50;37.60
23311;DHT22;11828;51.508;18.118;2023-10-13T02:29:11;31.50;37.50
23311;DHT22;11828;51.508;18.118;2023-10-13T02:31:43;31.50;37.60
23311;DHT22;11828;51.508;18.118;2023-10-13T02:34:20;31.50;37.70
23311;DHT22;11828;51.508;18.118;2023-10-13T02:36:49;31.50;37.60
23311;DHT22;11828;51.508;18.118;2023-10-13T02:39:16;31.50;37.60
23311;DHT22;11828;51.508;18.118;2023-10-13T02:41:42;31.50;37.60
23311;DHT22;11828;51.508;18.118;2023-10-13T02:44:14;31.50;37.60
23311;DHT22;11828;51.508;18.118;2023-10-13T02:46:53;31.40;37.60
23311;DHT22;11828;51.508;18.118;2023-10-13T02:49:25;31.40;37.60
23311;DHT22;11828;51.508;18.118;2023-10-13T02:51:53;31.40;37.60
23311;DHT22;11828;51.508;18.118;2023-10-13T02:54:26;31.40;37.70
23311;DHT22;11828;51.508;18.118;2023-10-13T02:56:57;31.50;37.70
23311;DHT22;11828;51.508;18.118;2023-10-13T02:59:25;31.50;37.70
23311;DHT22;11828;51.508;18.118;2023-10-13T03:04:41;31.50;37.60
23311;DHT22;11828;51.508;18.118;2023-10-13T03:07:08;31.50;37.70
23311;DHT22;11828;51.508;18.118;2023-10-13T03:09:34;31.50;37.50
23311;DHT22;11828;51.508;18.118;2023-10-13T03:12:03;31.50;37.40
23311;DHT22;11828;51.508;18.118;2023-10-13T03:14:29;31.50;37.50
23311;DHT22;11828;51.508;18.118;2023-10-13T03:17:00;31.40;37.50
23311;DHT22;11828;51.508;18.118;2023-10-13T03:19:45;31.40;37.60
23311;DHT22;11828;51.508;18.118;2023-10-13T03:22:16;31.40;37.70
23311;DHT22;11828;51.508;18.118;2023-10-13T03:24:44;31.50;37.70
23311;DHT22;11828;51.508;18.118;2023-10-13T03:27:18;31.50;37.60
23311;DHT22;11828;51.508;18.118;2023-10-13T03:29:49;31.50;37.70
23311;DHT22;11828;51.508;18.118;2023-10-13T03:32:26;31.40;37.80
23311;DHT22;11828;51.508;18.118;2023-10-13T03:34:56;31.40;37.80
23311;DHT22;11828;51.508;18.118;2023-10-13T03:37:28;31.40;37.80
23311;DHT22;11828;51.508;18.118;2023-10-13T03:40:11;31.40;37.90
23311;DHT22;11828;51.508;18.118;2023-10-13T03:42:55;31.40;38.00
23311;DHT22;11828;51.508;18.118;2023-10-13T03:45:25;31.40;38.00
23311;DHT22;11828;51.508;18.118;2023-10-13T03:47:52;31.40;37.90
23311;DHT22;11828;51.508;18.118;2023-10-13T03:50:19;31.40;37.80
23311;DHT22;11828;51.508;18.118;2023-10-13T03:52:58;31.40;37.80
23311;DHT22;11828;51.508;18.118;2023-10-13T03:55:25;31.40;37.80
23311;DHT22;11828;51.508;18.118;2023-10-13T03:57:58;31.40;38.00
23311;DHT22;11828;51.508;18.118;2023-10-13T04:00:26;31.40;38.00
23311;DHT22;11828;51.508;18.118;2023-10-13T04:02:55;31.40;38.10
23311;DHT22;11828;51.508;18.118;2023-10-13T04:05:41;31.30;38.00
23311;DHT22;11828;51.508;18.118;2023-10-13T04:08:27;31.30;38.00
23311;DHT22;11828;51.508;18.118;2023-10-13T04:10:54;31.30;38.00
23311;DHT22;11828;51.508;18.118;2023-10-13T04:13:21;31.30;38.10
23311;DHT22;11828;51.508;18.118;2023-10-13T04:16:07;31.30;38.20
23311;DHT22;11828;51.508;18.118;2023-10-13T04:18:49;31.20;38.10
23311;DHT22;11828;51.508;18.118;2023-10-13T04:21:22;31.10;38.20
23311;DHT22;11828;51.508;18.118;2023-10-13T04:24:11;30.90;38.40
23311;DHT22;11828;51.508;18.118;2023-10-13T04:26:49;30.70;38.80
23311;DHT22;11828;51.508;18.118;2023-10-13T04:29:45;30.50;39.00
23311;DHT22;11828;51.508;18.118;2023-10-13T04:32:26;30.50;39.30
23311;DHT22;11828;51.508;18.118;2023-10-13T04:35:00;30.40;39.40
23311;DHT22;11828;51.508;18.118;2023-10-13T04:37:38;30.30;39.50
23311;DHT22;11828;51.508;18.118;2023-10-13T04:40:24;30.30;39.60
23311;DHT22;11828;51.508;18.118;2023-10-13T04:42:51;30.40;39.60
23311;DHT22;11828;51.508;18.118;2023-10-13T04:45:23;30.40;39.50
23311;DHT22;11828;51.508;18.118;2023-10-13T04:47:59;30.30;39.60
23311;DHT22;11828;51.508;18.118;2023-10-13T04:50:47;30.10;39.80
23311;DHT22;11828;51.508;18.118;2023-10-13T04:53:19;30.00;40.20
23311;DHT22;11828;51.508;18.118;2023-10-13T04:56:11;29.90;40.40
23311;DHT22;11828;51.508;18.118;2023-10-13T04:58:56;29.90;40.30
23311;DHT22;11828;51.508;18.118;2023-10-13T05:01:40;30.00;40.20
23311;DHT22;11828;51.508;18.118;2023-10-13T05:04:24;30.00;40.10
23311;DHT22;11828;51.508;18.118;2023-10-13T05:07:26;30.10;40.10
23311;DHT22;11828;51.508;18.118;2023-10-13T05:10:19;30.20;40.00
23311;DHT22;11828;51.508;18.118;2023-10-13T05:13:03;30.40;39.80
23311;DHT22;11828;51.508;18.118;2023-10-13T05:15:49;30.50;39.60
23311;DHT22;11828;51.508;18.118;2023-10-13T05:18:35;30.60;39.40
23311;DHT22;11828;51.508;18.118;2023-10-13T05:21:20;30.70;39.10
23311;DHT22;11828;51.508;18.118;2023-10-13T05:24:06;30.70;39.00
23311;DHT22;11828;51.508;18.118;2023-10-13T05:26:52;30.80;38.90
23311;DHT22;11828;51.508;18.118;2023-10-13T05:29:42;30.80;38.70
23311;DHT22;11828;51.508;18.118;2023-10-13T05:32:27;30.80;38.60
23311;DHT22;11828;51.508;18.118;2023-10-13T05:35:13;30.90;38.60
23311;DHT22;11828;51.508;18.118;2023-10-13T05:37:58;30.90;38.50
23311;DHT22;11828;51.508;18.118;2023-10-13T05:41:00;30.90;38.40
23311;DHT22;11828;51.508;18.118;2023-10-13T05:43:45;30.90;38.50
23311;DHT22;11828;51.508;18.118;2023-10-13T05:46:31;31.00;38.50
23311;DHT22;11828;51.508;18.118;2023-10-13T05:49:05;31.00;38.50
23311;DHT22;11828;51.508;18.118;2023-10-13T05:51:55;31.00;38.50
23311;DHT22;11828;51.508;18.118;2023-10-13T05:54:32;31.10;38.50
23311;DHT22;11828;51.508;18.118;2023-10-13T05:57:17;31.10;38.50
23311;DHT22;11828;51.508;18.118;2023-10-13T06:00:06;31.20;38.50
23311;DHT22;11828;51.508;18.118;2023-10-13T06:02:51;31.10;38.40
23311;DHT22;11828;51.508;18.118;2023-10-13T06:05:36;31.10;38.60
23311;DHT22;11828;51.508;18.118;2023-10-13T06:08:20;31.00;38.60
23311;DHT22;11828;51.508;18.118;2023-10-13T06:11:05;31.00;38.80
23311;DHT22;11828;51.508;18.118;2023-10-13T06:13:49;31.00;38.80
23311;DHT22;11828;51.508;18.118;2023-10-13T06:16:34;30.90;39.00
23311;DHT22;11828;51.508;18.118;2023-10-13T06:19:19;30.90;39.10
23311;DHT22;11828;51.508;18.118;2023-10-13T06:22:03;31.00;39.40
23311;DHT22;11828;51.508;18.118;2023-10-13T06:24:48;30.90;39.30
23311;DHT22;11828;51.508;18.118;2023-10-13T06:27:33;30.70;39.50
23311;DHT22;11828;51.508;18.118;2023-10-13T06:30:17;30.70;39.60
23311;DHT22;11828;51.508;18.118;2023-10-13T06:32:45;30.60;39.70
23311;DHT22;11828;51.508;18.118;2023-10-13T06:35:12;30.50;40.00
23311;DHT22;11828;51.508;18.118;2023-10-13T06:37:49;30.50;40.40
23311;DHT22;11828;51.508;18.118;2023-10-13T06:40:16;30.40;40.40
23311;DHT22;11828;51.508;18.118;2023-10-13T06:42:50;30.60;40.50
23311;DHT22;11828;51.508;18.118;2023-10-13T06:45:17;30.70;40.20
23311;DHT22;11828;51.508;18.118;2023-10-13T06:47:44;30.70;40.30
23311;DHT22;11828;51.508;18.118;2023-10-13T06:50:13;30.80;40.30
23311;DHT22;11828;51.508;18.118;2023-10-13T06:52:48;30.70;40.20
23311;DHT22;11828;51.508;18.118;2023-10-13T06:55:15;30.70;40.20
23311;DHT22;11828;51.508;18.118;2023-10-13T06:57:52;30.70;40.20
23311;DHT22;11828;51.508;18.118;2023-10-13T07:00:18;30.90;40.20
23311;DHT22;11828;51.508;18.118;2023-10-13T07:03:03;31.00;40.30
23311;DHT22;11828;51.508;18.118;2023-10-13T07:05:39;31.10;40.30
23311;DHT22;11828;51.508;18.118;2023-10-13T07:08:07;31.20;40.20
23311;DHT22;11828;51.508;18.118;2023-10-13T07:10:35;31.30;40.00
23311;DHT22;11828;51.508;18.118;2023-10-13T07:13:14;31.50;40.00
23311;DHT22;11828;51.508;18.118;2023-10-13T07:15:40;31.50;39.60
23311;DHT22;11828;51.508;18.118;2023-10-13T07:18:16;31.60;39.50
23311;DHT22;11828;51.508;18.118;2023-10-13T07:20:49;31.70;39.40
23311;DHT22;11828;51.508;18.118;2023-10-13T07:23:15;31.70;39.20
23311;DHT22;11828;51.508;18.118;2023-10-13T07:25:55;31.70;39.20
23311;DHT22;11828;51.508;18.118;2023-10-13T07:28:29;31.80;39.20
23311;DHT22;11828;51.508;18.118;2023-10-13T07:31:25;32.00;39.00
23311;DHT22;11828;51.508;18.118;2023-10-13T07:33:53;32.10;39.20
23311;DHT22;11828;51.508;18.118;2023-10-13T07:36:29;32.20;39.30
23311;DHT22;11828;51.508;18.118;2023-10-13T07:38:58;32.50;39.40
23311;DHT22;11828;51.508;18.118;2023-10-13T07:41:48;33.00;39.40
23311;DHT22;11828;51.508;18.118;2023-10-13T07:44:21;33.50;38.50
23311;DHT22;11828;51.508;18.118;2023-10-13T07:46:53;33.90;37.40
23311;DHT22;11828;51.508;18.118;2023-10-13T07:49:32;34.50;37.60
23311;DHT22;11828;51.508;18.118;2023-10-13T07:52:06;34.90;36.20
23311;DHT22;11828;51.508;18.118;2023-10-13T07:54:53;35.60;36.70
23311;DHT22;11828;51.508;18.118;2023-10-13T07:57:26;36.40;35.20
23311;DHT22;11828;51.508;18.118;2023-10-13T07:59:56;37.10;34.40
23311;DHT22;11828;51.508;18.118;2023-10-13T08:02:41;37.50;32.60
23311;DHT22;11828;51.508;18.118;2023-10-13T08:05:15;38.00;32.70
23311;DHT22;11828;51.508;18.118;2023-10-13T08:08:05;38.30;32.20
23311;DHT22;11828;51.508;18.118;2023-10-13T08:10:40;38.60;31.70
23311;DHT22;11828;51.508;18.118;2023-10-13T08:13:11;38.60;30.80
23311;DHT22;11828;51.508;18.118;2023-10-13T08:15:42;38.70;30.80
23311;DHT22;11828;51.508;18.118;2023-10-13T08:18:14;38.70;30.00
23311;DHT22;11828;51.508;18.118;2023-10-13T08:20:50;38.70;30.10
23311;DHT22;11828;51.508;18.118;2023-10-13T08:23:18;38.60;29.70
23311;DHT22;11828;51.508;18.118;2023-10-13T08:26:08;38.40;29.30
23311;DHT22;11828;51.508;18.118;2023-10-13T08:28:54;38.20;29.60
23311;DHT22;11828;51.508;18.118;2023-10-13T08:31:20;38.10;29.40
23311;DHT22;11828;51.508;18.118;2023-10-13T08:33:51;38.00;29.70
23311;DHT22;11828;51.508;18.118;2023-10-13T08:36:31;38.00;29.50
23311;DHT22;11828;51.508;18.118;2023-10-13T08:38:58;38.00;28.90
23311;DHT22;11828;51.508;18.118;2023-10-13T08:41:44;38.20;29.50
23311;DHT22;11828;51.508;18.118;2023-10-13T08:44:36;38.60;29.30
23311;DHT22;11828;51.508;18.118;2023-10-13T08:47:03;38.70;28.80
23311;DHT22;11828;51.508;18.118;2023-10-13T08:49:32;38.90;28.90
23311;DHT22;11828;51.508;18.118;2023-10-13T08:52:07;38.90;28.80
23311;DHT22;11828;51.508;18.118;2023-10-13T08:54:56;39.00;28.80
23311;DHT22;11828;51.508;18.118;2023-10-13T08:57:39;39.20;28.70
23311;DHT22;11828;51.508;18.118;2023-10-13T09:00:09;39.40;28.50
23311;DHT22;11828;51.508;18.118;2023-10-13T09:02:54;39.20;28.10
23311;DHT22;11828;51.508;18.118;2023-10-13T09:05:46;39.10;28.30
23311;DHT22;11828;51.508;18.118;2023-10-13T09:08:28;39.10;28.30
23311;DHT22;11828;51.508;18.118;2023-10-13T09:11:33;39.00;28.40
23311;DHT22;11828;51.508;18.118;2023-10-13T09:14:15;38.90;28.40
23311;DHT22;11828;51.508;18.118;2023-10-13T09:17:06;39.00;28.70
23311;DHT22;11828;51.508;18.118;2023-10-13T09:19:53;39.10;28.70
23311;DHT22;11828;51.508;18.118;2023-10-13T09:22:23;39.00;28.40
23311;DHT22;11828;51.508;18.118;2023-10-13T09:24:59;39.00;28.60
23311;DHT22;11828;51.508;18.118;2023-10-13T09:27:27;38.90;28.60
23311;DHT22;11828;51.508;18.118;2023-10-13T09:30:03;38.90;29.20
23311;DHT22;11828;51.508;18.118;2023-10-13T09:32:45;39.00;28.80
23311;DHT22;11828;51.508;18.118;2023-10-13T09:35:18;38.90;28.70
23311;DHT22;11828;51.508;18.118;2023-10-13T09:37:50;38.80;28.90
23311;DHT22;11828;51.508;18.118;2023-10-13T09:40:17;38.70;28.90
23311;DHT22;11828;51.508;18.118;2023-10-13T09:43:00;38.70;29.00
23311;DHT22;11828;51.508;18.118;2023-10-13T09:45:32;38.70;29.10
23311;DHT22;11828;51.508;18.118;2023-10-13T09:48:10;38.40;29.00
23311;DHT22;11828;51.508;18.118;2023-10-13T09:50:45;38.10;29.20
23311;DHT22;11828;51.508;18.118;2023-10-13T09:53:18;38.00;29.50
23311;DHT22;11828;51.508;18.118;2023-10-13T09:55:48;37.90;29.70
23311;DHT22;11828;51.508;18.118;2023-10-13T09:58:18;37.70;30.20
23311;DHT22;11828;51.508;18.118;2023-10-13T10:00:51;37.70;30.00
23311;DHT22;11828;51.508;18.118;2023-10-13T10:03:43;37.70;29.90
23311;DHT22;11828;51.508;18.118;2023-10-13T10:06:22;37.40;29.80
23311;DHT22;11828;51.508;18.118;2023-10-13T10:09:07;37.00;30.20
23311;DHT22;11828;51.508;18.118;2023-10-13T10:15:12;36.90;31.20
23311;DHT22;11828;51.508;18.118;2023-10-13T10:17:54;36.80;30.80
23311;DHT22;11828;51.508;18.118;2023-10-13T10:20:34;36.80;30.80
23311;DHT22;11828;51.508;18.118;2023-10-13T10:23:25;36.70;31.60
23311;DHT22;11828;51.508;18.118;2023-10-13T10:25:53;36.60;30.90
23311;DHT22;11828;51.508;18.118;2023-10-13T10:28:37;36.50;30.60
23311;DHT22;11828;51.508;18.118;2023-10-13T10:31:08;36.30;30.90
23311;DHT22;11828;51.508;18.118;2023-10-13T10:33:39;36.20;31.00
23311;DHT22;11828;51.508;18.118;2023-10-13T10:36:06;36.00;30.70
23311;DHT22;11828;51.508;18.118;2023-10-13T10:38:52;36.00;30.90
23311;DHT22;11828;51.508;18.118;2023-10-13T10:41:29;35.80;31.10
23311;DHT22;11828;51.508;18.118;2023-10-13T10:44:12;35.80;31.20
23311;DHT22;11828;51.508;18.118;2023-10-13T10:46:43;35.70;31.30
23311;DHT22;11828;51.508;18.118;2023-10-13T10:49:26;35.50;31.50
23311;DHT22;11828;51.508;18.118;2023-10-13T10:52:00;35.50;31.80
23311;DHT22;11828;51.508;18.118;2023-10-13T10:54:29;35.50;32.10
23311;DHT22;11828;51.508;18.118;2023-10-13T10:56:58;35.40;32.20
23311;DHT22;11828;51.508;18.118;2023-10-13T10:59:38;35.40;32.30
23311;DHT22;11828;51.508;18.118;2023-10-13T11:02:06;35.30;32.20
23311;DHT22;11828;51.508;18.118;2023-10-13T11:04:35;35.20;32.10
23311;DHT22;11828;51.508;18.118;2023-10-13T11:07:07;35.10;32.20
23311;DHT22;11828;51.508;18.118;2023-10-13T11:09:35;35.00;32.30
23311;DHT22;11828;51.508;18.118;2023-10-13T11:12:14;35.10;32.50
23311;DHT22;11828;51.508;18.118;2023-10-13T11:14:42;35.30;33.20
23311;DHT22;11828;51.508;18.118;2023-10-13T11:17:19;35.30;32.20
23311;DHT22;11828;51.508;18.118;2023-10-13T11:20:13;35.20;32.00
23311;DHT22;11828;51.508;18.118;2023-10-13T11:22:48;35.30;32.30
23311;DHT22;11828;51.508;18.118;2023-10-13T11:25:22;35.30;32.20
23311;DHT22;11828;51.508;18.118;2023-10-13T11:27:58;35.30;32.40
23311;DHT22;11828;51.508;18.118;2023-10-13T11:30:26;35.40;32.40
23311;DHT22;11828;51.508;18.118;2023-10-13T11:33:08;35.40;32.30
23311;DHT22;11828;51.508;18.118;2023-10-13T11:35:36;35.30;32.30
23311;DHT22;11828;51.508;18.118;2023-10-13T11:38:40;35.20;32.60
23311;DHT22;11828;51.508;18.118;2023-10-13T11:41:06;35.30;33.00
23311;DHT22;11828;51.508;18.118;2023-10-13T11:46:13;35.20;32.90
23311;DHT22;11828;51.508;18.118;2023-10-13T11:49:10;35.40;32.80
23311;DHT22;11828;51.508;18.118;2023-10-13T11:51:58;35.50;32.60
23311;DHT22;11828;51.508;18.118;2023-10-13T11:54:42;35.60;32.80
23311;DHT22;11828;51.508;18.118;2023-10-13T11:57:08;35.50;32.60
23311;DHT22;11828;51.508;18.118;2023-10-13T11:59:35;35.50;32.40
23311;DHT22;11828;51.508;18.118;2023-10-13T12:02:06;35.40;32.40
23311;DHT22;11828;51.508;18.118;2023-10-13T12:04:51;35.40;32.50
23311;DHT22;11828;51.508;18.118;2023-10-13T12:07:29;35.50;32.70
23311;DHT22;11828;51.508;18.118;2023-10-13T12:10:08;35.50;32.90
23311;DHT22;11828;51.508;18.118;2023-10-13T12:12:41;35.50;32.90
23311;DHT22;11828;51.508;18.118;2023-10-13T12:15:09;35.50;32.80
23311;DHT22;11828;51.508;18.118;2023-10-13T12:17:39;35.60;32.80
23311;DHT22;11828;51.508;18.118;2023-10-13T12:20:06;35.70;32.70
23311;DHT22;11828;51.508;18.118;2023-10-13T12:22:39;35.70;32.70
23311;DHT22;11828;51.508;18.118;2023-10-13T12:25:09;35.40;32.80
23311;DHT22;11828;51.508;18.118;2023-10-13T12:28:04;35.50;33.00
23311;DHT22;11828;51.508;18.118;2023-10-13T12:30:47;35.50;32.90
23311;DHT22;11828;51.508;18.118;2023-10-13T12:33:20;35.50;33.00
23311;DHT22;11828;51.508;18.118;2023-10-13T12:36:06;35.40;33.10
23311;DHT22;11828;51.508;18.118;2023-10-13T12:38:36;35.40;33.20
23311;DHT22;11828;51.508;18.118;2023-10-13T12:41:18;35.20;33.00
23311;DHT22;11828;51.508;18.118;2023-10-13T12:44:05;35.20;33.20
23311;DHT22;11828;51.508;18.118;2023-10-13T12:46:53;35.20;33.40
23311;DHT22;11828;51.508;18.118;2023-10-13T12:49:38;35.10;33.50
23311;DHT22;11828;51.508;18.118;2023-10-13T12:52:13;35.00;33.50
23311;DHT22;11828;51.508;18.118;2023-10-13T12:54:47;34.90;33.80
23311;DHT22;11828;51.508;18.118;2023-10-13T12:57:14;34.80;34.10
23311;DHT22;11828;51.508;18.118;2023-10-13T12:59:41;34.70;34.30
23311;DHT22;11828;51.508;18.118;2023-10-13T13:02:08;34.70;34.30
23311;DHT22;11828;51.508;18.118;2023-10-13T13:04:41;34.50;34.40
23311;DHT22;11828;51.508;18.118;2023-10-13T13:07:10;34.40;34.60
23311;DHT22;11828;51.508;18.118;2023-10-13T13:09:40;34.40;34.80
23311;DHT22;11828;51.508;18.118;2023-10-13T13:12:07;34.40;34.90
23311;DHT22;11828;51.508;18.118;2023-10-13T13:14:33;34.30;35.00
23311;DHT22;11828;51.508;18.118;2023-10-13T13:17:06;34.30;35.10
23311;DHT22;11828;51.508;18.118;2023-10-13T13:19:33;34.20;35.20
23311;DHT22;11828;51.508;18.118;2023-10-13T13:22:08;34.10;35.20
23311;DHT22;11828;51.508;18.118;2023-10-13T13:24:42;34.10;35.30
23311;DHT22;11828;51.508;18.118;2023-10-13T13:27:13;34.00;35.50
23311;DHT22;11828;51.508;18.118;2023-10-13T13:29:44;34.00;35.60
23311;DHT22;11828;51.508;18.118;2023-10-13T13:32:10;33.80;35.70
23311;DHT22;11828;51.508;18.118;2023-10-13T13:34:47;33.80;35.80
23311;DHT22;11828;51.508;18.118;2023-10-13T13:37:34;33.90;35.80
23311;DHT22;11828;51.508;18.118;2023-10-13T13:40:06;33.90;36.00
23311;DHT22;11828;51.508;18.118;2023-10-13T13:42:42;33.90;36.10
23311;DHT22;11828;51.508;18.118;2023-10-13T13:45:16;33.80;36.10
23311;DHT22;11828;51.508;18.118;2023-10-13T13:47:55;33.80;36.30
23311;DHT22;11828;51.508;18.118;2023-10-13T13:50:26;33.80;36.30
23311;DHT22;11828;51.508;18.118;2023-10-13T13:52:55;33.80;36.40
23311;DHT22;11828;51.508;18.118;2023-10-13T13:55:22;33.70;36.30
23311;DHT22;11828;51.508;18.118;2023-10-13T13:57:50;33.80;36.50
23311;DHT22;11828;51.508;18.118;2023-10-13T14:00:19;33.80;36.50
23311;DHT22;11828;51.508;18.118;2023-10-13T14:03:12;33.90;36.50
23311;DHT22;11828;51.508;18.118;2023-10-13T14:05:44;33.90;36.40
23311;DHT22;11828;51.508;18.118;2023-10-13T14:08:11;33.90;36.40
23311;DHT22;11828;51.508;18.118;2023-10-13T14:10:38;33.90;36.20
23311;DHT22;11828;51.508;18.118;2023-10-13T14:13:23;34.00;36.20
23311;DHT22;11828;51.508;18.118;2023-10-13T14:16:09;34.00;36.30
23311;DHT22;11828;51.508;18.118;2023-10-13T14:18:44;33.90;36.20
23311;DHT22;11828;51.508;18.118;2023-10-13T14:21:13;33.80;36.20
23311;DHT22;11828;51.508;18.118;2023-10-13T14:23:46;33.90;36.30
23311;DHT22;11828;51.508;18.118;2023-10-13T14:26:14;33.90;36.30
23311;DHT22;11828;51.508;18.118;2023-10-13T14:28:50;33.90;36.50
23311;DHT22;11828;51.508;18.118;2023-10-13T14:31:29;34.00;36.40
23311;DHT22;11828;51.508;18.118;2023-10-13T14:33:56;33.80;36.50
23311;DHT22;11828;51.508;18.118;2023-10-13T14:36:25;34.00;36.60
23311;DHT22;11828;51.508;18.118;2023-10-13T14:38:57;34.00;36.50
23311;DHT22;11828;51.508;18.118;2023-10-13T14:41:23;34.00;36.50
23311;DHT22;11828;51.508;18.118;2023-10-13T14:43:50;34.00;36.60
23311;DHT22;11828;51.508;18.118;2023-10-13T14:46:16;34.00;36.60
23311;DHT22;11828;51.508;18.118;2023-10-13T14:48:44;34.00;36.60
23311;DHT22;11828;51.508;18.118;2023-10-13T14:51:13;34.00;36.60
23311;DHT22;11828;51.508;18.118;2023-10-13T14:53:40;34.00;36.60
23311;DHT22;11828;51.508;18.118;2023-10-13T14:56:18;33.90;36.60
23311;DHT22;11828;51.508;18.118;2023-10-13T14:58:45;33.90;36.90
23311;DHT22;11828;51.508;18.118;2023-10-13T15:01:16;33.90;37.00
23311;DHT22;11828;51.508;18.118;2023-10-13T15:03:44;33.80;37.00
23311;DHT22;11828;51.508;18.118;2023-10-13T15:06:17;33.70;37.10
23311;DHT22;11828;51.508;18.118;2023-10-13T15:08:52;33.70;37.20
23311;DHT22;11828;51.508;18.118;2023-10-13T15:11:22;33.60;37.20
23311;DHT22;11828;51.508;18.118;2023-10-13T15:14:04;33.50;37.20
23311;DHT22;11828;51.508;18.118;2023-10-13T15:16:33;33.60;37.40
23311;DHT22;11828;51.508;18.118;2023-10-13T15:19:00;33.60;37.30
23311;DHT22;11828;51.508;18.118;2023-10-13T15:21:30;33.60;37.40
23311;DHT22;11828;51.508;18.118;2023-10-13T15:24:04;33.60;37.40
23311;DHT22;11828;51.508;18.118;2023-10-13T15:26:41;33.50;37.30
23311;DHT22;11828;51.508;18.118;2023-10-13T15:29:22;33.50;37.40
23311;DHT22;11828;51.508;18.118;2023-10-13T15:31:52;33.40;37.60
23311;DHT22;11828;51.508;18.118;2023-10-13T15:34:24;33.40;37.50
23311;DHT22;11828;51.508;18.118;2023-10-13T15:36:52;33.30;37.60
23311;DHT22;11828;51.508;18.118;2023-10-13T15:39:22;33.30;37.70
23311;DHT22;11828;51.508;18.118;2023-10-13T15:41:55;33.30;37.80
23311;DHT22;11828;51.508;18.118;2023-10-13T15:44:25;33.20;37.90
23311;DHT22;11828;51.508;18.118;2023-10-13T15:46:56;33.30;37.90
23311;DHT22;11828;51.508;18.118;2023-10-13T15:49:24;33.20;37.90
23311;DHT22;11828;51.508;18.118;2023-10-13T15:51:53;33.20;38.00
23311;DHT22;11828;51.508;18.118;2023-10-13T15:54:22;33.20;38.10
23311;DHT22;11828;51.508;18.118;2023-10-13T15:56:50;33.20;38.00
23311;DHT22;11828;51.508;18.118;2023-10-13T15:59:20;33.20;38.10
23311;DHT22;11828;51.508;18.118;2023-10-13T16:01:48;33.10;38.20
23311;DHT22;11828;51.508;18.118;2023-10-13T16:04:20;33.20;38.30
23311;DHT22;11828;51.508;18.118;2023-10-13T16:06:47;33.10;38.20
23311;DHT22;11828;51.508;18.118;2023-10-13T16:09:16;33.00;38.50
23311;DHT22;11828;51.508;18.118;2023-10-13T16:11:49;33.00;38.70